CEB357 RPVR-RPLL
Flight info
| Callsign | CEB357 |
|---|---|
| Flight time | N/A |
| Altitude | 26000 |
| Route | MINOR3A MINOR B473 LAIYA LAIYA1A |
| Aircraft | A20N/M-SDE2E3FGHIJ1RWXY/LB1 |
Departure
| Time | 2026-04-23 13:30 |
|---|---|
| Airport | Roxas Airport (RPVR) |
Arrival
| Time | N/A |
|---|---|
| Airport | Ninoy Aquino International Airport (RPLL) |
| Time | Latitude | Longitude | Altitude | Speed | Heading |
|---|---|---|---|---|---|
| 2026-04-23 13:03 | 11.60130 | 122.74898 | 22 ft | 0 kts | 265° |
| 2026-04-23 13:21 | 11.60130 | 122.74909 | 22 ft | 2 kts | 265° |
| 2026-04-23 13:21 | 11.60130 | 122.74925 | 22 ft | 2 kts | 287° |
| 2026-04-23 13:21 | 11.60124 | 122.74938 | 22 ft | 2 kts | 307° |
| 2026-04-23 13:22 | 11.60117 | 122.74945 | 22 ft | 0 kts | 322° |
| 2026-04-23 13:22 | 11.60121 | 122.74942 | 22 ft | 3 kts | 324° |
| 2026-04-23 13:22 | 11.60138 | 122.74931 | 22 ft | 0 kts | 327° |
| 2026-04-23 13:22 | 11.60142 | 122.74927 | 22 ft | 0 kts | 324° |
| 2026-04-23 13:25 | 11.60143 | 122.74927 | 22 ft | 0 kts | 324° |
| 2026-04-23 13:26 | 11.60161 | 122.74921 | 22 ft | 7 kts | 354° |
| 2026-04-23 13:26 | 11.60214 | 122.74940 | 22 ft | 8 kts | 79° |
| 2026-04-23 13:26 | 11.60187 | 122.74990 | 22 ft | 9 kts | 137° |
| 2026-04-23 13:26 | 11.60112 | 122.75043 | 22 ft | 17 kts | 145° |
| 2026-04-23 13:27 | 11.59967 | 122.75149 | 22 ft | 30 kts | 143° |
| 2026-04-23 13:27 | 11.59799 | 122.75267 | 21 ft | 28 kts | 145° |
| 2026-04-23 13:27 | 11.59644 | 122.75378 | 21 ft | 26 kts | 144° |
| 2026-04-23 13:27 | 11.59495 | 122.75487 | 22 ft | 25 kts | 144° |
| 2026-04-23 13:28 | 11.59352 | 122.75589 | 22 ft | 24 kts | 144° |
| 2026-04-23 13:28 | 11.59214 | 122.75689 | 22 ft | 23 kts | 144° |
| 2026-04-23 13:28 | 11.59142 | 122.75724 | 22 ft | 4 kts | 156° |
| 2026-04-23 13:28 | 11.59154 | 122.75730 | 22 ft | 4 kts | 342° |
| 2026-04-23 13:29 | 11.59162 | 122.75724 | 22 ft | 0 kts | 324° |
| 2026-04-23 13:29 | 11.59185 | 122.75709 | 22 ft | 24 kts | 325° |
| 2026-04-23 13:29 | 11.59585 | 122.75427 | 22 ft | 109 kts | 326° |
| 2026-04-23 13:29 | 11.60340 | 122.74834 | 273 ft | 145 kts | 322° |
| 2026-04-23 13:30 | 11.61053 | 122.74204 | 949 ft | 137 kts | 338° |
| 2026-04-23 13:30 | 11.61942 | 122.74183 | 1504 ft | 130 kts | 31° |
| 2026-04-23 13:30 | 11.62603 | 122.74760 | 2041 ft | 130 kts | 59° |
| 2026-04-23 13:30 | 11.62911 | 122.75650 | 2428 ft | 142 kts | 87° |
| 2026-04-23 13:31 | 11.62646 | 122.76655 | 2814 ft | 160 kts | 121° |
| 2026-04-23 13:31 | 11.61652 | 122.77325 | 3166 ft | 190 kts | 168° |
| 2026-04-23 13:31 | 11.60273 | 122.77254 | 3672 ft | 208 kts | 182° |
| 2026-04-23 13:31 | 11.58754 | 122.77207 | 4081 ft | 229 kts | 173° |
| 2026-04-23 13:32 | 11.57225 | 122.77756 | 4605 ft | 242 kts | 139° |
| 2026-04-23 13:32 | 11.56000 | 122.79009 | 5234 ft | 256 kts | 133° |
| 2026-04-23 13:32 | 11.54704 | 122.80323 | 5851 ft | 272 kts | 135° |
| 2026-04-23 13:32 | 11.53339 | 122.81658 | 6684 ft | 277 kts | 136° |
| 2026-04-23 13:33 | 11.51963 | 122.82990 | 7802 ft | 269 kts | 136° |
| 2026-04-23 13:33 | 11.50663 | 122.84247 | 8908 ft | 258 kts | 136° |
| 2026-04-23 13:33 | 11.49392 | 122.85477 | 9881 ft | 250 kts | 137° |
| 2026-04-23 13:33 | 11.48129 | 122.86694 | 10588 ft | 253 kts | 137° |
| 2026-04-23 13:34 | 11.46839 | 122.87938 | 11237 ft | 257 kts | 137° |
| 2026-04-23 13:34 | 11.45529 | 122.89204 | 11893 ft | 261 kts | 137° |
| 2026-04-23 13:34 | 11.44218 | 122.90470 | 12546 ft | 264 kts | 137° |
| 2026-04-23 13:34 | 11.42872 | 122.91771 | 13194 ft | 267 kts | 137° |
| 2026-04-23 13:35 | 11.41520 | 122.93076 | 13831 ft | 269 kts | 137° |
| 2026-04-23 13:35 | 11.40159 | 122.94386 | 14418 ft | 271 kts | 137° |
| 2026-04-23 13:35 | 11.38794 | 122.95702 | 14762 ft | 272 kts | 137° |
| 2026-04-23 13:35 | 11.37405 | 122.97041 | 14868 ft | 272 kts | 137° |
| 2026-04-23 13:36 | 11.36031 | 122.98368 | 14875 ft | 271 kts | 137° |
| 2026-04-23 13:36 | 11.34675 | 122.99676 | 14874 ft | 265 kts | 137° |
| 2026-04-23 13:36 | 11.33359 | 123.00945 | 14874 ft | 254 kts | 137° |
| 2026-04-23 13:36 | 11.32076 | 123.02180 | 14879 ft | 254 kts | 137° |
| 2026-04-23 13:37 | 11.30776 | 123.03428 | 14886 ft | 254 kts | 139° |
| 2026-04-23 13:37 | 11.29295 | 123.04353 | 14869 ft | 252 kts | 166° |
| 2026-04-23 13:37 | 11.27573 | 123.04433 | 14875 ft | 249 kts | 195° |
| 2026-04-23 13:37 | 11.26045 | 123.03630 | 14881 ft | 249 kts | 226° |
| 2026-04-23 13:38 | 11.25121 | 123.02143 | 14882 ft | 250 kts | 256° |
| 2026-04-23 13:38 | 11.25063 | 123.00407 | 14879 ft | 250 kts | 285° |
| 2026-04-23 13:38 | 11.25896 | 122.98833 | 14886 ft | 261 kts | 315° |
| 2026-04-23 13:38 | 11.27440 | 122.97850 | 14872 ft | 266 kts | 347° |
| 2026-04-23 13:39 | 11.29266 | 122.97877 | 14885 ft | 268 kts | 15° |
| 2026-04-23 13:39 | 11.30954 | 122.98685 | 14870 ft | 270 kts | 41° |
| 2026-04-23 13:39 | 11.32040 | 123.00240 | 14879 ft | 279 kts | 73° |
| 2026-04-23 13:39 | 11.32162 | 123.02281 | 14887 ft | 305 kts | 104° |
| 2026-04-23 13:40 | 11.31160 | 123.04288 | 14896 ft | 330 kts | 131° |
| 2026-04-23 13:40 | 11.29469 | 123.05969 | 14891 ft | 356 kts | 139° |
| 2026-04-23 13:40 | 11.27504 | 123.07681 | 14879 ft | 379 kts | 139° |
| 2026-04-23 13:40 | 11.25454 | 123.09480 | 14869 ft | 394 kts | 139° |
| 2026-04-23 13:41 | 11.23399 | 123.11327 | 14867 ft | 396 kts | 138° |
| 2026-04-23 13:41 | 11.21324 | 123.13232 | 14864 ft | 397 kts | 137° |
| 2026-04-23 13:41 | 11.19284 | 123.15127 | 14863 ft | 396 kts | 137° |
| 2026-04-23 13:41 | 11.17262 | 123.17015 | 14866 ft | 398 kts | 137° |
| 2026-04-23 13:42 | 11.15157 | 123.18989 | 14871 ft | 417 kts | 137° |
| 2026-04-23 13:42 | 11.13011 | 123.21001 | 14865 ft | 427 kts | 137° |
| 2026-04-23 13:42 | 11.10812 | 123.23066 | 14865 ft | 430 kts | 137° |
| 2026-04-23 13:42 | 11.08595 | 123.25149 | 14865 ft | 430 kts | 137° |
| 2026-04-23 13:43 | 11.06392 | 123.27219 | 14868 ft | 430 kts | 137° |
| 2026-04-23 13:43 | 11.04181 | 123.29297 | 14870 ft | 430 kts | 137° |
| 2026-04-23 13:43 | 11.01990 | 123.31356 | 14868 ft | 430 kts | 137° |
| 2026-04-23 13:43 | 10.99792 | 123.33422 | 14869 ft | 430 kts | 137° |
| 2026-04-23 13:44 | 10.97590 | 123.35491 | 14873 ft | 430 kts | 137° |
| 2026-04-23 13:44 | 10.95375 | 123.37573 | 14875 ft | 430 kts | 137° |
| 2026-04-23 13:44 | 10.93191 | 123.39624 | 14877 ft | 430 kts | 137° |
| 2026-04-23 13:44 | 10.90982 | 123.41707 | 14879 ft | 430 kts | 136° |
| 2026-04-23 13:45 | 10.88798 | 123.43795 | 14880 ft | 430 kts | 136° |
| 2026-04-23 13:45 | 10.86613 | 123.45881 | 14882 ft | 430 kts | 136° |
| 2026-04-23 13:45 | 10.84431 | 123.47966 | 14885 ft | 430 kts | 136° |
| 2026-04-23 13:45 | 10.82252 | 123.50053 | 14877 ft | 430 kts | 136° |
| 2026-04-23 13:46 | 10.80082 | 123.52133 | 14882 ft | 430 kts | 136° |
| 2026-04-23 13:46 | 10.77890 | 123.54235 | 14888 ft | 429 kts | 136° |
| 2026-04-23 13:46 | 10.75710 | 123.56329 | 14891 ft | 429 kts | 136° |
| 2026-04-23 13:46 | 10.73522 | 123.58429 | 14690 ft | 428 kts | 136° |
| 2026-04-23 13:47 | 10.71359 | 123.60506 | 14459 ft | 427 kts | 136° |
| 2026-04-23 13:47 | 10.69227 | 123.62555 | 14225 ft | 426 kts | 136° |
| 2026-04-23 13:47 | 10.67075 | 123.64623 | 13926 ft | 425 kts | 136° |
| 2026-04-23 13:47 | 10.64926 | 123.66691 | 13538 ft | 423 kts | 136° |
| 2026-04-23 13:48 | 10.62815 | 123.68728 | 13082 ft | 412 kts | 136° |
| 2026-04-23 13:48 | 10.60735 | 123.70727 | 12539 ft | 405 kts | 136° |
| 2026-04-23 13:48 | 10.58697 | 123.72678 | 11989 ft | 399 kts | 136° |
| 2026-04-23 13:48 | 10.56697 | 123.74592 | 11434 ft | 393 kts | 136° |
| 2026-04-23 13:49 | 10.54727 | 123.76476 | 10894 ft | 388 kts | 136° |
| 2026-04-23 13:49 | 10.52786 | 123.78336 | 10593 ft | 375 kts | 136° |
| 2026-04-23 13:49 | 10.50934 | 123.80109 | 10436 ft | 359 kts | 136° |
| 2026-04-23 13:49 | 10.49140 | 123.81828 | 10299 ft | 343 kts | 136° |
| 2026-04-23 13:50 | 10.47434 | 123.83462 | 10181 ft | 328 kts | 136° |
| 2026-04-23 13:50 | 10.45798 | 123.85027 | 10077 ft | 314 kts | 136° |
| 2026-04-23 13:50 | 10.44243 | 123.86515 | 9898 ft | 303 kts | 136° |
| 2026-04-23 13:50 | 10.42716 | 123.87976 | 9545 ft | 300 kts | 136° |
| 2026-04-23 13:51 | 10.41200 | 123.89426 | 9195 ft | 297 kts | 136° |
| 2026-04-23 13:51 | 10.39711 | 123.90849 | 8846 ft | 293 kts | 136° |
| 2026-04-23 13:51 | 10.38222 | 123.92272 | 8513 ft | 289 kts | 135° |
| 2026-04-23 13:51 | 10.36776 | 123.93655 | 8189 ft | 285 kts | 135° |
| 2026-04-23 13:52 | 10.35325 | 123.95041 | 7861 ft | 282 kts | 135° |
| 2026-04-23 13:52 | 10.33902 | 123.96401 | 7542 ft | 279 kts | 135° |
| 2026-04-23 13:52 | 10.32400 | 123.97649 | 7192 ft | 278 kts | 151° |
| 2026-04-23 13:52 | 10.30542 | 123.98083 | 6859 ft | 279 kts | 181° |
| 2026-04-23 13:53 | 10.28687 | 123.97547 | 6540 ft | 279 kts | 205° |
| 2026-04-23 13:53 | 10.26972 | 123.96613 | 6226 ft | 276 kts | 207° |
| 2026-04-23 13:53 | 10.25284 | 123.95689 | 5806 ft | 278 kts | 206° |
| 2026-04-23 13:53 | 10.23576 | 123.94765 | 5611 ft | 269 kts | 206° |
| 2026-04-23 13:54 | 10.21947 | 123.93894 | 5448 ft | 260 kts | 206° |
| 2026-04-23 13:54 | 10.20365 | 123.93054 | 5291 ft | 252 kts | 206° |
| 2026-04-23 13:54 | 10.18838 | 123.92247 | 5151 ft | 244 kts | 205° |
| 2026-04-23 13:54 | 10.17335 | 123.91454 | 5009 ft | 236 kts | 205° |
| 2026-04-23 13:55 | 10.15904 | 123.90699 | 4867 ft | 228 kts | 205° |
| 2026-04-23 13:55 | 10.14504 | 123.89961 | 4713 ft | 221 kts | 205° |
| 2026-04-23 13:55 | 10.13176 | 123.89233 | 4536 ft | 216 kts | 213° |
| 2026-04-23 13:55 | 10.12197 | 123.88136 | 4440 ft | 204 kts | 240° |
| 2026-04-23 13:56 | 10.11799 | 123.86784 | 4258 ft | 195 kts | 266° |
| 2026-04-23 13:56 | 10.11960 | 123.85477 | 4084 ft | 185 kts | 291° |
| 2026-04-23 13:56 | 10.12566 | 123.84384 | 3908 ft | 172 kts | 314° |
| 2026-04-23 13:56 | 10.13453 | 123.83632 | 3718 ft | 161 kts | 335° |
| 2026-04-23 13:57 | 10.14478 | 123.83244 | 3455 ft | 154 kts | 354° |
| 2026-04-23 13:57 | 10.15535 | 123.83211 | 3175 ft | 149 kts | 13° |
| 2026-04-23 13:57 | 10.16515 | 123.83500 | 2892 ft | 146 kts | 29° |
| 2026-04-23 13:57 | 10.17359 | 123.84058 | 2608 ft | 143 kts | 44° |
| 2026-04-23 13:58 | 10.18051 | 123.84764 | 2426 ft | 141 kts | 49° |
| 2026-04-23 13:58 | 10.18721 | 123.85509 | 2411 ft | 143 kts | 50° |
| 2026-04-23 13:58 | 10.19403 | 123.86262 | 2406 ft | 143 kts | 49° |
| 2026-04-23 13:58 | 10.20072 | 123.86992 | 2404 ft | 143 kts | 49° |
| 2026-04-23 13:59 | 10.20758 | 123.87733 | 2425 ft | 143 kts | 49° |
| 2026-04-23 13:59 | 10.21447 | 123.88471 | 2324 ft | 144 kts | 48° |
| 2026-04-23 13:59 | 10.22143 | 123.89201 | 2119 ft | 142 kts | 48° |
| 2026-04-23 13:59 | 10.22832 | 123.89919 | 1928 ft | 141 kts | 48° |
| 2026-04-23 14:00 | 10.23283 | 123.90390 | 1808 ft | 141 kts | 49° |
| 2026-04-23 14:00 | 10.24167 | 123.91314 | 1551 ft | 133 kts | 48° |
| 2026-04-23 14:00 | 10.24815 | 123.91982 | 1372 ft | 132 kts | 46° |
| 2026-04-23 14:00 | 10.25471 | 123.92650 | 1196 ft | 132 kts | 46° |
| 2026-04-23 14:01 | 10.26116 | 123.93308 | 1028 ft | 132 kts | 46° |
| 2026-04-23 14:01 | 10.26771 | 123.93965 | 841 ft | 131 kts | 45° |
| 2026-04-23 14:01 | 10.27426 | 123.94607 | 656 ft | 130 kts | 45° |
| 2026-04-23 14:01 | 10.28069 | 123.95264 | 519 ft | 130 kts | 45° |
| 2026-04-23 14:02 | 10.28723 | 123.95915 | 355 ft | 130 kts | 44° |
| 2026-04-23 14:02 | 10.29368 | 123.96555 | 152 ft | 130 kts | 43° |
| 2026-04-23 14:02 | 10.30005 | 123.97192 | 28 ft | 126 kts | 44° |
| 2026-04-23 14:02 | 10.30538 | 123.97727 | 30 ft | 82 kts | 45° |
| 2026-04-23 14:03 | 10.30826 | 123.98016 | 34 ft | 34 kts | 45° |
| 2026-04-23 14:03 | 10.30992 | 123.98179 | 34 ft | 31 kts | 43° |
| 2026-04-23 14:03 | 10.31152 | 123.98302 | 32 ft | 26 kts | 24° |
| 2026-04-23 14:03 | 10.31291 | 123.98348 | 33 ft | 2 kts | 13° |
| 2026-04-23 14:04 | 10.31330 | 123.98353 | 34 ft | 10 kts | 358° |
| 2026-04-23 14:04 | 10.31394 | 123.98319 | 34 ft | 10 kts | 316° |
| 2026-04-23 14:04 | 10.31442 | 123.98270 | 36 ft | 9 kts | 314° |
| 2026-04-23 14:04 | 10.31485 | 123.98226 | 38 ft | 8 kts | 315° |
| 2026-04-23 14:05 | 10.31524 | 123.98187 | 40 ft | 7 kts | 315° |
| 2026-04-23 14:05 | 10.31558 | 123.98153 | 41 ft | 6 kts | 315° |
| 2026-04-23 14:05 | 10.31562 | 123.98113 | 41 ft | 5 kts | 245° |
| 2026-04-23 14:05 | 10.31543 | 123.98076 | 42 ft | 5 kts | 261° |
| 2026-04-23 14:06 | 10.31566 | 123.98049 | 43 ft | 5 kts | 327° |
| 2026-04-23 14:06 | 10.31595 | 123.98025 | 43 ft | 4 kts | 316° |
| 2026-04-23 14:06 | 10.31596 | 123.98024 | 43 ft | 0 kts | 316° |